sensor_id;sensor_type;location;lat;lon;timestamp;pressure;altitude;pressure_sealevel;temperature;humidity
37852;BME280;23691;52.486;4.650;2022-07-22T00:01:42;102270.72;;;18.42;66.66
37852;BME280;23691;52.486;4.650;2022-07-22T00:04:08;102282.06;;;18.46;66.76
37852;BME280;23691;52.486;4.650;2022-07-22T00:06:33;102276.81;;;18.44;66.50
37852;BME280;23691;52.486;4.650;2022-07-22T00:09:00;102274.94;;;18.45;66.78
37852;BME280;23691;52.486;4.650;2022-07-22T00:11:25;102274.28;;;18.43;66.68
37852;BME280;23691;52.486;4.650;2022-07-22T00:13:51;102269.72;;;18.43;66.71
37852;BME280;23691;52.486;4.650;2022-07-22T00:16:16;102275.59;;;18.47;66.57
37852;BME280;23691;52.486;4.650;2022-07-22T00:18:42;102271.69;;;18.50;66.63
37852;BME280;23691;52.486;4.650;2022-07-22T00:21:07;102277.47;;;18.47;67.06
37852;BME280;23691;52.486;4.650;2022-07-22T00:23:33;102272.22;;;18.45;66.79
37852;BME280;23691;52.486;4.650;2022-07-22T00:25:58;102269.16;;;18.48;66.87
37852;BME280;23691;52.486;4.650;2022-07-22T00:28:23;102271.50;;;18.51;66.51
37852;BME280;23691;52.486;4.650;2022-07-22T00:30:49;102268.59;;;18.53;66.54
37852;BME280;23691;52.486;4.650;2022-07-22T00:33:15;102265.06;;;18.52;66.41
37852;BME280;23691;52.486;4.650;2022-07-22T00:35:40;102264.69;;;18.55;66.40
37852;BME280;23691;52.486;4.650;2022-07-22T00:38:05;102266.72;;;18.53;66.34
37852;BME280;23691;52.486;4.650;2022-07-22T00:40:31;102271.69;;;18.50;66.38
37852;BME280;23691;52.486;4.650;2022-07-22T00:42:56;102259.59;;;18.37;66.41
37852;BME280;23691;52.486;4.650;2022-07-22T00:45:21;102256.22;;;18.35;66.30
37852;BME280;23691;52.486;4.650;2022-07-22T00:47:47;102265.00;;;18.37;66.09
37852;BME280;23691;52.486;4.650;2022-07-22T00:50:13;102257.06;;;18.36;65.80
37852;BME280;23691;52.486;4.650;2022-07-22T00:52:40;102259.75;;;18.36;65.42
37852;BME280;23691;52.486;4.650;2022-07-22T00:55:07;102261.16;;;18.32;65.03
37852;BME280;23691;52.486;4.650;2022-07-22T00:57:32;102259.13;;;18.34;64.47
37852;BME280;23691;52.486;4.650;2022-07-22T00:59:58;102268.09;;;18.34;64.54
37852;BME280;23691;52.486;4.650;2022-07-22T01:02:23;102264.34;;;18.35;64.25
37852;BME280;23691;52.486;4.650;2022-07-22T01:04:49;102263.69;;;18.33;64.14
37852;BME280;23691;52.486;4.650;2022-07-22T01:07:14;102259.47;;;18.31;64.06
37852;BME280;23691;52.486;4.650;2022-07-22T01:09:44;102259.66;;;18.29;64.04
37852;BME280;23691;52.486;4.650;2022-07-22T01:12:11;102260.50;;;18.30;63.90
37852;BME280;23691;52.486;4.650;2022-07-22T01:14:36;102255.91;;;18.30;64.04
37852;BME280;23691;52.486;4.650;2022-07-22T01:17:02;102256.41;;;18.34;64.00
37852;BME280;23691;52.486;4.650;2022-07-22T01:19:28;102255.75;;;18.32;63.87
37852;BME280;23691;52.486;4.650;2022-07-22T01:21:53;102255.09;;;18.30;63.88
37852;BME280;23691;52.486;4.650;2022-07-22T01:24:19;102255.56;;;18.33;63.61
37852;BME280;23691;52.486;4.650;2022-07-22T01:26:44;102251.53;;;18.29;63.72
37852;BME280;23691;52.486;4.650;2022-07-22T01:29:10;102252.22;;;18.31;63.73
37852;BME280;23691;52.486;4.650;2022-07-22T01:31:35;102250.34;;;18.32;63.45
37852;BME280;23691;52.486;4.650;2022-07-22T01:34:01;102256.59;;;18.32;63.72
37852;BME280;23691;52.486;4.650;2022-07-22T01:36:26;102257.63;;;18.31;63.74
37852;BME280;23691;52.486;4.650;2022-07-22T01:38:51;102248.47;;;18.32;63.47
37852;BME280;23691;52.486;4.650;2022-07-22T01:41:17;102244.91;;;18.32;63.16
37852;BME280;23691;52.486;4.650;2022-07-22T01:43:43;102245.91;;;18.31;63.41
37852;BME280;23691;52.486;4.650;2022-07-22T01:46:08;102246.47;;;18.26;63.19
37852;BME280;23691;52.486;4.650;2022-07-22T01:48:34;102238.16;;;18.28;62.81
37852;BME280;23691;52.486;4.650;2022-07-22T01:51:00;102242.75;;;18.27;62.52
37852;BME280;23691;52.486;4.650;2022-07-22T01:53:25;102238.53;;;18.24;62.41
37852;BME280;23691;52.486;4.650;2022-07-22T01:55:51;102238.72;;;18.23;62.47
37852;BME280;23691;52.486;4.650;2022-07-22T01:58:17;102235.53;;;18.19;62.12
37852;BME280;23691;52.486;4.650;2022-07-22T02:00:42;102233.19;;;18.16;62.05
37852;BME280;23691;52.486;4.650;2022-07-22T02:03:10;102242.31;;;18.15;61.74
37852;BME280;23691;52.486;4.650;2022-07-22T02:05:36;102233.38;;;18.15;61.25
37852;BME280;23691;52.486;4.650;2022-07-22T02:08:08;102235.22;;;18.14;60.96
37852;BME280;23691;52.486;4.650;2022-07-22T02:10:34;102237.28;;;18.12;60.89
37852;BME280;23691;52.486;4.650;2022-07-22T02:13:00;102239.16;;;18.12;60.90
37852;BME280;23691;52.486;4.650;2022-07-22T02:15:26;102231.19;;;18.10;61.17
37852;BME280;23691;52.486;4.650;2022-07-22T02:17:52;102235.41;;;18.13;60.66
37852;BME280;23691;52.486;4.650;2022-07-22T02:20:17;102242.50;;;18.14;60.89
37852;BME280;23691;52.486;4.650;2022-07-22T02:22:43;102233.19;;;18.16;60.64
37852;BME280;23691;52.486;4.650;2022-07-22T02:25:08;102231.31;;;18.17;60.57
37852;BME280;23691;52.486;4.650;2022-07-22T02:27:34;102228.13;;;18.13;60.92
37852;BME280;23691;52.486;4.650;2022-07-22T02:30:00;102236.91;;;18.15;60.68
37852;BME280;23691;52.486;4.650;2022-07-22T02:32:25;102225.25;;;18.15;60.68
37852;BME280;23691;52.486;4.650;2022-07-22T02:34:51;102231.66;;;18.14;60.69
37852;BME280;23691;52.486;4.650;2022-07-22T02:37:16;102230.28;;;18.18;60.75
37852;BME280;23691;52.486;4.650;2022-07-22T02:39:41;102232.63;;;18.21;60.30
37852;BME280;23691;52.486;4.650;2022-07-22T02:42:07;102219.75;;;18.23;60.47
37852;BME280;23691;52.486;4.650;2022-07-22T02:44:32;102230.22;;;18.26;60.61
37852;BME280;23691;52.486;4.650;2022-07-22T02:46:58;102226.88;;;18.24;61.27
37852;BME280;23691;52.486;4.650;2022-07-22T02:49:23;102232.28;;;18.24;61.54
37852;BME280;23691;52.486;4.650;2022-07-22T02:51:49;102231.91;;;18.27;61.79
37852;BME280;23691;52.486;4.650;2022-07-22T02:54:14;102228.53;;;18.25;61.62
37852;BME280;23691;52.486;4.650;2022-07-22T02:56:39;102229.28;;;18.19;61.93
37852;BME280;23691;52.486;4.650;2022-07-22T02:59:05;102227.09;;;18.14;61.70
37852;BME280;23691;52.486;4.650;2022-07-22T03:01:30;102231.66;;;18.14;61.77
37852;BME280;23691;52.486;4.650;2022-07-22T03:03:55;102233.91;;;18.10;61.77
37852;BME280;23691;52.486;4.650;2022-07-22T03:06:21;102235.56;;;18.11;61.82
37852;BME280;23691;52.486;4.650;2022-07-22T03:08:46;102241.19;;;18.10;61.63
37852;BME280;23691;52.486;4.650;2022-07-22T03:11:12;102241.56;;;18.07;62.19
37852;BME280;23691;52.486;4.650;2022-07-22T03:13:37;102229.84;;;18.06;62.29
37852;BME280;23691;52.486;4.650;2022-07-22T03:16:03;102238.84;;;18.07;62.77
37852;BME280;23691;52.486;4.650;2022-07-22T03:18:28;102235.47;;;18.05;62.85
37852;BME280;23691;52.486;4.650;2022-07-22T03:20:54;102234.13;;;18.00;63.62
37852;BME280;23691;52.486;4.650;2022-07-22T03:23:19;102241.06;;;18.03;64.22
37852;BME280;23691;52.486;4.650;2022-07-22T03:25:44;102237.66;;;18.09;64.15
37852;BME280;23691;52.486;4.650;2022-07-22T03:28:10;102240.81;;;18.13;64.23
37852;BME280;23691;52.486;4.650;2022-07-22T03:30:35;102245.03;;;18.15;64.96
37852;BME280;23691;52.486;4.650;2022-07-22T03:33:01;102235.91;;;18.16;64.92
37852;BME280;23691;52.486;4.650;2022-07-22T03:35:26;102236.53;;;18.18;65.12
37852;BME280;23691;52.486;4.650;2022-07-22T03:37:51;102232.53;;;18.14;65.53
37852;BME280;23691;52.486;4.650;2022-07-22T03:40:17;102231.03;;;18.12;65.79
37852;BME280;23691;52.486;4.650;2022-07-22T03:42:42;102223.91;;;18.11;65.60
37852;BME280;23691;52.486;4.650;2022-07-22T03:45:09;102222.38;;;18.16;65.63
37852;BME280;23691;52.486;4.650;2022-07-22T03:47:34;102220.50;;;18.17;65.81
37852;BME280;23691;52.486;4.650;2022-07-22T03:50:00;102221.50;;;18.16;65.94
37852;BME280;23691;52.486;4.650;2022-07-22T03:52:27;102218.78;;;18.16;65.96
37852;BME280;23691;52.486;4.650;2022-07-22T03:54:52;102217.94;;;18.15;65.79
37852;BME280;23691;52.486;4.650;2022-07-22T03:57:18;102212.69;;;18.14;65.73
37852;BME280;23691;52.486;4.650;2022-07-22T03:59:44;102217.47;;;18.12;66.00
37852;BME280;23691;52.486;4.650;2022-07-22T04:02:10;102211.03;;;18.13;65.94
37852;BME280;23691;52.486;4.650;2022-07-22T04:04:35;102219.66;;;18.16;65.77
37852;BME280;23691;52.486;4.650;2022-07-22T04:07:00;102220.00;;;18.13;65.65
37852;BME280;23691;52.486;4.650;2022-07-22T04:09:26;102210.19;;;18.12;65.65
37852;BME280;23691;52.486;4.650;2022-07-22T04:11:51;102216.81;;;18.10;65.64
37852;BME280;23691;52.486;4.650;2022-07-22T04:14:17;102211.41;;;18.10;65.47
37852;BME280;23691;52.486;4.650;2022-07-22T04:16:42;102204.94;;;18.11;65.23
37852;BME280;23691;52.486;4.650;2022-07-22T04:19:10;102213.75;;;18.13;65.12
37852;BME280;23691;52.486;4.650;2022-07-22T04:21:35;102216.63;;;18.11;65.10
37852;BME280;23691;52.486;4.650;2022-07-22T04:24:01;102213.28;;;18.09;64.85
37852;BME280;23691;52.486;4.650;2022-07-22T04:26:26;102212.41;;;18.09;64.93
37852;BME280;23691;52.486;4.650;2022-07-22T04:28:52;102210.19;;;18.12;64.92
37852;BME280;23691;52.486;4.650;2022-07-22T04:31:17;102210.66;;;18.16;64.86
37852;BME280;23691;52.486;4.650;2022-07-22T04:33:43;102205.91;;;18.18;65.02
37852;BME280;23691;52.486;4.650;2022-07-22T04:36:08;102205.91;;;18.18;64.31
37852;BME280;23691;52.486;4.650;2022-07-22T04:38:33;102209.44;;;18.18;64.13
37852;BME280;23691;52.486;4.650;2022-07-22T04:40:59;102212.00;;;18.20;64.21
37852;BME280;23691;52.486;4.650;2022-07-22T04:43:24;102207.59;;;18.19;64.43
37852;BME280;23691;52.486;4.650;2022-07-22T04:45:50;102214.88;;;18.18;64.10
37852;BME280;23691;52.486;4.650;2022-07-22T04:48:16;102224.50;;;18.21;64.10
37852;BME280;23691;52.486;4.650;2022-07-22T04:50:42;102221.31;;;18.17;64.05
37852;BME280;23691;52.486;4.650;2022-07-22T04:53:07;102223.00;;;18.18;63.93
37852;BME280;23691;52.486;4.650;2022-07-22T04:55:32;102221.78;;;18.21;63.46
37852;BME280;23691;52.486;4.650;2022-07-22T04:57:58;102225.81;;;18.25;63.62
37852;BME280;23691;52.486;4.650;2022-07-22T05:00:23;102225.81;;;18.25;63.39
37852;BME280;23691;52.486;4.650;2022-07-22T05:02:49;102229.03;;;18.29;63.30
37852;BME280;23691;52.486;4.650;2022-07-22T05:05:15;102227.34;;;18.28;63.18
37852;BME280;23691;52.486;4.650;2022-07-22T05:07:40;102226.13;;;18.30;63.09
37852;BME280;23691;52.486;4.650;2022-07-22T05:10:06;102229.31;;;18.34;62.82
37852;BME280;23691;52.486;4.650;2022-07-22T05:12:31;102227.44;;;18.34;63.05
37852;BME280;23691;52.486;4.650;2022-07-22T05:14:57;102230.53;;;18.31;63.04
37852;BME280;23691;52.486;4.650;2022-07-22T05:17:23;102229.63;;;18.39;62.46
37852;BME280;23691;52.486;4.650;2022-07-22T05:19:48;102226.81;;;18.47;62.48
37852;BME280;23691;52.486;4.650;2022-07-22T05:22:14;102229.81;;;18.52;62.31
37852;BME280;23691;52.486;4.650;2022-07-22T05:24:39;102228.63;;;18.55;62.32
37852;BME280;23691;52.486;4.650;2022-07-22T05:27:05;102223.84;;;18.57;61.93
37852;BME280;23691;52.486;4.650;2022-07-22T05:29:30;102230.13;;;18.57;61.25
37852;BME280;23691;52.486;4.650;2022-07-22T05:31:56;102235.38;;;18.59;61.12
37852;BME280;23691;52.486;4.650;2022-07-22T05:34:21;102240.03;;;18.65;60.96
37852;BME280;23691;52.486;4.650;2022-07-22T05:36:47;102234.44;;;18.66;60.94
37852;BME280;23691;52.486;4.650;2022-07-22T05:39:12;102237.44;;;18.72;60.82
37852;BME280;23691;52.486;4.650;2022-07-22T05:41:37;102231.84;;;18.73;60.55
37852;BME280;23691;52.486;4.650;2022-07-22T05:44:04;102240.59;;;18.75;60.33
37852;BME280;23691;52.486;4.650;2022-07-22T05:46:29;102232.16;;;18.78;60.40
37852;BME280;23691;52.486;4.650;2022-07-22T05:48:55;102231.97;;;18.80;60.39
37852;BME280;23691;52.486;4.650;2022-07-22T05:51:21;102227.84;;;18.84;60.11
37852;BME280;23691;52.486;4.650;2022-07-22T05:53:46;102233.09;;;18.85;60.02
37852;BME280;23691;52.486;4.650;2022-07-22T05:56:12;102230.97;;;18.96;59.95
37852;BME280;23691;52.486;4.650;2022-07-22T05:58:39;102229.19;;;19.03;59.82
37852;BME280;23691;52.486;4.650;2022-07-22T06:01:04;102226.25;;;19.04;59.66
37852;BME280;23691;52.486;4.650;2022-07-22T06:03:30;102222.00;;;19.10;59.73
37852;BME280;23691;52.486;4.650;2022-07-22T06:05:55;102232.06;;;19.16;59.34
37852;BME280;23691;52.486;4.650;2022-07-22T06:08:21;102226.81;;;19.15;58.96
37852;BME280;23691;52.486;4.650;2022-07-22T06:10:47;102224.97;;;19.15;58.79
37852;BME280;23691;52.486;4.650;2022-07-22T06:13:13;102224.97;;;19.15;58.82
37852;BME280;23691;52.486;4.650;2022-07-22T06:15:38;102225.16;;;19.14;58.54
37852;BME280;23691;52.486;4.650;2022-07-22T06:18:03;102222.25;;;19.15;58.67
37852;BME280;23691;52.486;4.650;2022-07-22T06:20:29;102224.75;;;19.17;58.71
37852;BME280;23691;52.486;4.650;2022-07-22T06:22:54;102215.63;;;19.18;58.55
37852;BME280;23691;52.486;4.650;2022-07-22T06:25:20;102227.31;;;19.18;57.91
37852;BME280;23691;52.486;4.650;2022-07-22T06:27:45;102225.59;;;19.17;58.25
37852;BME280;23691;52.486;4.650;2022-07-22T06:30:11;102219.16;;;19.18;58.15
37852;BME280;23691;52.486;4.650;2022-07-22T06:32:36;102219.44;;;19.23;58.12
37852;BME280;23691;52.486;4.650;2022-07-22T06:35:02;102226.34;;;19.26;57.95
37852;BME280;23691;52.486;4.650;2022-07-22T06:37:28;102219.31;;;19.31;57.91
37852;BME280;23691;52.486;4.650;2022-07-22T06:39:53;102222.31;;;19.37;57.37
37852;BME280;23691;52.486;4.650;2022-07-22T06:42:19;102235.13;;;19.43;57.10
37852;BME280;23691;52.486;4.650;2022-07-22T06:44:44;102224.66;;;19.40;56.98
37852;BME280;23691;52.486;4.650;2022-07-22T06:47:09;102231.09;;;19.39;56.92
37852;BME280;23691;52.486;4.650;2022-07-22T06:49:35;102227.84;;;19.43;56.85
37852;BME280;23691;52.486;4.650;2022-07-22T06:52:00;102227.28;;;19.48;56.86
37852;BME280;23691;52.486;4.650;2022-07-22T06:54:27;102228.19;;;19.55;56.42
37852;BME280;23691;52.486;4.650;2022-07-22T06:56:53;102229.13;;;19.62;56.45
37852;BME280;23691;52.486;4.650;2022-07-22T06:59:18;102229.50;;;19.74;56.42
37852;BME280;23691;52.486;4.650;2022-07-22T07:01:43;102231.03;;;19.83;56.02
37852;BME280;23691;52.486;4.650;2022-07-22T07:04:09;102225.88;;;19.88;56.12
37852;BME280;23691;52.486;4.650;2022-07-22T07:06:34;102232.44;;;19.94;55.66
37852;BME280;23691;52.486;4.650;2022-07-22T07:09:00;102222.97;;;19.90;55.52
37852;BME280;23691;52.486;4.650;2022-07-22T07:11:25;102221.56;;;19.94;55.43
37852;BME280;23691;52.486;4.650;2022-07-22T07:13:51;102228.09;;;20.00;55.22
37852;BME280;23691;52.486;4.650;2022-07-22T07:16:16;102231.88;;;20.05;55.02
37852;BME280;23691;52.486;4.650;2022-07-22T07:18:42;102223.16;;;20.10;54.52
37852;BME280;23691;52.486;4.650;2022-07-22T07:21:07;102225.22;;;20.08;54.80
37852;BME280;23691;52.486;4.650;2022-07-22T07:23:32;102227.19;;;20.14;54.66
37852;BME280;23691;52.486;4.650;2022-07-22T07:25:58;102219.94;;;20.21;54.24
37852;BME280;23691;52.486;4.650;2022-07-22T07:28:23;102223.94;;;20.25;54.15
37852;BME280;23691;52.486;4.650;2022-07-22T07:30:49;102224.41;;;20.29;53.46
37852;BME280;23691;52.486;4.650;2022-07-22T07:33:15;102222.56;;;20.36;53.09
37852;BME280;23691;52.486;4.650;2022-07-22T07:35:40;102223.06;;;20.46;53.12
37852;BME280;23691;52.486;4.650;2022-07-22T07:38:06;102217.13;;;20.57;52.42
37852;BME280;23691;52.486;4.650;2022-07-22T07:40:32;102218.00;;;20.65;52.08
37852;BME280;23691;52.486;4.650;2022-07-22T07:42:57;102218.13;;;20.78;51.95
37852;BME280;23691;52.486;4.650;2022-07-22T07:45:22;102215.44;;;20.85;52.30
37852;BME280;23691;52.486;4.650;2022-07-22T07:47:48;102222.78;;;20.91;52.01
37852;BME280;23691;52.486;4.650;2022-07-22T07:50:14;102222.00;;;20.97;51.90
37852;BME280;23691;52.486;4.650;2022-07-22T07:52:41;102219.47;;;20.95;51.69
37852;BME280;23691;52.486;4.650;2022-07-22T07:55:08;102219.13;;;21.05;51.62
37852;BME280;23691;52.486;4.650;2022-07-22T07:57:33;102223.75;;;21.11;51.47
37852;BME280;23691;52.486;4.650;2022-07-22T07:59:59;102209.06;;;21.06;50.89
37852;BME280;23691;52.486;4.650;2022-07-22T08:02:24;102220.31;;;20.96;51.28
37852;BME280;23691;52.486;4.650;2022-07-22T08:04:50;102221.75;;;20.92;51.30
37852;BME280;23691;52.486;4.650;2022-07-22T08:07:15;102220.88;;;20.85;50.60
37852;BME280;23691;52.486;4.650;2022-07-22T08:09:41;102215.47;;;20.91;50.65
37852;BME280;23691;52.486;4.650;2022-07-22T08:12:06;102211.97;;;20.97;51.01
37852;BME280;23691;52.486;4.650;2022-07-22T08:14:32;102213.44;;;21.00;50.72
37852;BME280;23691;52.486;4.650;2022-07-22T08:16:57;102209.72;;;21.08;50.78
37852;BME280;23691;52.486;4.650;2022-07-22T08:19:23;102205.75;;;21.10;50.77
37852;BME280;23691;52.486;4.650;2022-07-22T08:21:49;102210.97;;;21.05;50.65
37852;BME280;23691;52.486;4.650;2022-07-22T08:24:15;102210.50;;;21.01;50.37
37852;BME280;23691;52.486;4.650;2022-07-22T08:26:40;102200.38;;;20.89;50.87
37852;BME280;23691;52.486;4.650;2022-07-22T08:29:06;102206.47;;;20.91;50.72
37852;BME280;23691;52.486;4.650;2022-07-22T08:31:35;102202.69;;;20.92;50.94
37852;BME280;23691;52.486;4.650;2022-07-22T08:34:01;102204.81;;;20.96;50.76
37852;BME280;23691;52.486;4.650;2022-07-22T08:36:27;102207.75;;;20.95;51.03
37852;BME280;23691;52.486;4.650;2022-07-22T08:38:53;102206.75;;;21.02;51.32
37852;BME280;23691;52.486;4.650;2022-07-22T08:41:18;102206.22;;;20.86;51.42
37852;BME280;23691;52.486;4.650;2022-07-22T08:43:46;102202.19;;;20.75;51.85
37852;BME280;23691;52.486;4.650;2022-07-22T08:46:12;102194.81;;;20.69;52.13
37852;BME280;23691;52.486;4.650;2022-07-22T08:48:39;102198.34;;;20.63;52.71
37852;BME280;23691;52.486;4.650;2022-07-22T08:51:05;102204.16;;;20.59;53.48
37852;BME280;23691;52.486;4.650;2022-07-22T08:53:33;102208.97;;;20.57;53.82
37852;BME280;23691;52.486;4.650;2022-07-22T08:55:59;102199.91;;;20.50;53.83
37852;BME280;23691;52.486;4.650;2022-07-22T08:58:25;102206.19;;;20.51;53.79
37852;BME280;23691;52.486;4.650;2022-07-22T09:01:07;102209.19;;;20.56;53.85
37852;BME280;23691;52.486;4.650;2022-07-22T09:03:48;102202.91;;;20.55;53.70
37852;BME280;23691;52.486;4.650;2022-07-22T09:06:19;102203.34;;;20.59;53.46
37852;BME280;23691;52.486;4.650;2022-07-22T09:09:05;102198.78;;;20.66;53.62
37852;BME280;23691;52.486;4.650;2022-07-22T09:11:31;102192.28;;;20.67;53.43
37852;BME280;23691;52.486;4.650;2022-07-22T09:13:58;102185.59;;;20.63;53.22
37852;BME280;23691;52.486;4.650;2022-07-22T09:16:46;102180.22;;;20.76;52.99
37852;BME280;23691;52.486;4.650;2022-07-22T09:19:12;102187.47;;;20.97;52.92
37852;BME280;23691;52.486;4.650;2022-07-22T09:21:40;102188.22;;;21.19;52.42
37852;BME280;23691;52.486;4.650;2022-07-22T09:24:07;102183.25;;;21.36;52.32
37852;BME280;23691;52.486;4.650;2022-07-22T09:26:34;102181.06;;;21.60;51.84
37852;BME280;23691;52.486;4.650;2022-07-22T09:29:00;102178.38;;;21.80;51.22
37852;BME280;23691;52.486;4.650;2022-07-22T09:31:31;102180.91;;;21.95;51.50
37852;BME280;23691;52.486;4.650;2022-07-22T09:33:58;102183.63;;;21.95;51.06
37852;BME280;23691;52.486;4.650;2022-07-22T09:36:24;102188.22;;;21.81;51.14
37852;BME280;23691;52.486;4.650;2022-07-22T09:38:50;102194.28;;;21.76;51.38
37852;BME280;23691;52.486;4.650;2022-07-22T09:41:16;102191.34;;;21.71;51.70
37852;BME280;23691;52.486;4.650;2022-07-22T09:43:41;102189.03;;;21.75;51.61
37852;BME280;23691;52.486;4.650;2022-07-22T09:46:10;102191.56;;;21.76;51.08
37852;BME280;23691;52.486;4.650;2022-07-22T09:48:37;102199.53;;;21.78;51.23
37852;BME280;23691;52.486;4.650;2022-07-22T09:51:03;102200.38;;;21.85;51.30
37852;BME280;23691;52.486;4.650;2022-07-22T09:53:30;102188.22;;;21.87;50.40
37852;BME280;23691;52.486;4.650;2022-07-22T09:56:01;102192.63;;;21.82;50.39
37852;BME280;23691;52.486;4.650;2022-07-22T09:58:27;102191.16;;;21.93;50.29
37852;BME280;23691;52.486;4.650;2022-07-22T10:00:57;102190.97;;;21.94;50.32
37852;BME280;23691;52.486;4.650;2022-07-22T10:03:28;102194.75;;;22.06;49.66
37852;BME280;23691;52.486;4.650;2022-07-22T10:05:54;102196.41;;;22.07;49.49
37852;BME280;23691;52.486;4.650;2022-07-22T10:08:19;102195.19;;;22.17;49.57
37852;BME280;23691;52.486;4.650;2022-07-22T10:10:45;102198.34;;;22.27;49.40
37852;BME280;23691;52.486;4.650;2022-07-22T10:13:11;102201.28;;;22.32;49.11
37852;BME280;23691;52.486;4.650;2022-07-22T10:15:37;102209.47;;;22.25;49.08
37852;BME280;23691;52.486;4.650;2022-07-22T10:18:07;102210.06;;;22.14;49.93
37852;BME280;23691;52.486;4.650;2022-07-22T10:20:35;102203.78;;;22.14;50.01
37852;BME280;23691;52.486;4.650;2022-07-22T10:23:02;102206.72;;;22.05;50.08
37852;BME280;23691;52.486;4.650;2022-07-22T10:25:31;102208.16;;;22.01;50.40
37852;BME280;23691;52.486;4.650;2022-07-22T10:28:04;102204.81;;;22.06;49.96
37852;BME280;23691;52.486;4.650;2022-07-22T10:30:35;102205.88;;;22.12;50.14
37852;BME280;23691;52.486;4.650;2022-07-22T10:33:11;102205.66;;;22.13;50.20
37852;BME280;23691;52.486;4.650;2022-07-22T10:38:11;102213.22;;;22.11;49.81
37852;BME280;23691;52.486;4.650;2022-07-22T10:43:16;102201.44;;;21.84;50.20
37852;BME280;23691;52.486;4.650;2022-07-22T10:48:14;102205.25;;;22.03;49.72
37852;BME280;23691;52.486;4.650;2022-07-22T10:50:42;102203.13;;;21.98;49.63
37852;BME280;23691;52.486;4.650;2022-07-22T10:55:34;102199.13;;;21.94;49.86
37852;BME280;23691;52.486;4.650;2022-07-22T10:58:00;102201.66;;;22.02;49.15
37852;BME280;23691;52.486;4.650;2022-07-22T11:00:26;102205.06;;;22.24;49.13
37852;BME280;23691;52.486;4.650;2022-07-22T11:02:51;102203.81;;;22.34;49.04
37852;BME280;23691;52.486;4.650;2022-07-22T11:05:27;102193.94;;;22.39;48.58
37852;BME280;23691;52.486;4.650;2022-07-22T11:07:53;102186.41;;;22.28;48.85
37852;BME280;23691;52.486;4.650;2022-07-22T11:10:19;102188.94;;;22.23;48.88
37852;BME280;23691;52.486;4.650;2022-07-22T11:12:46;102185.97;;;22.24;48.34
37852;BME280;23691;52.486;4.650;2022-07-22T11:15:13;102188.50;;;22.26;48.49
37852;BME280;23691;52.486;4.650;2022-07-22T11:17:38;102190.38;;;22.05;48.63
37852;BME280;23691;52.486;4.650;2022-07-22T11:20:06;102180.69;;;21.90;48.96
37852;BME280;23691;52.486;4.650;2022-07-22T11:22:32;102191.34;;;21.78;49.24
37852;BME280;23691;52.486;4.650;2022-07-22T11:25:00;102190.75;;;21.76;49.57
37852;BME280;23691;52.486;4.650;2022-07-22T11:27:26;102196.19;;;21.82;49.17
37852;BME280;23691;52.486;4.650;2022-07-22T11:29:53;102182.16;;;21.92;49.07
37852;BME280;23691;52.486;4.650;2022-07-22T11:32:29;102181.72;;;21.95;48.97
37852;BME280;23691;52.486;4.650;2022-07-22T11:34:57;102173.81;;;22.00;48.91
37852;BME280;23691;52.486;4.650;2022-07-22T11:37:25;102167.50;;;22.00;48.89
37852;BME280;23691;52.486;4.650;2022-07-22T11:39:51;102172.13;;;22.06;48.35
37852;BME280;23691;52.486;4.650;2022-07-22T11:42:17;102166.25;;;22.16;48.67
37852;BME280;23691;52.486;4.650;2022-07-22T11:44:43;102169.44;;;22.33;48.34
37852;BME280;23691;52.486;4.650;2022-07-22T11:47:09;102156.59;;;22.46;47.74
37852;BME280;23691;52.486;4.650;2022-07-22T11:49:37;102158.25;;;22.67;47.63
37852;BME280;23691;52.486;4.650;2022-07-22T11:52:07;102163.28;;;22.70;46.81
37852;BME280;23691;52.486;4.650;2022-07-22T11:54:37;102147.94;;;22.76;47.06
37852;BME280;23691;52.486;4.650;2022-07-22T11:57:02;102146.84;;;22.90;47.17
37852;BME280;23691;52.486;4.650;2022-07-22T11:59:28;102163.00;;;23.05;47.23
37852;BME280;23691;52.486;4.650;2022-07-22T12:01:53;102170.56;;;23.03;46.78
37852;BME280;23691;52.486;4.650;2022-07-22T12:04:23;102168.25;;;23.00;46.65
37852;BME280;23691;52.486;4.650;2022-07-22T12:06:49;102158.50;;;23.24;46.76
37852;BME280;23691;52.486;4.650;2022-07-22T12:09:20;102160.97;;;23.32;45.85
37852;BME280;23691;52.486;4.650;2022-07-22T12:11:49;102147.03;;;23.47;46.03
37852;BME280;23691;52.486;4.650;2022-07-22T12:14:18;102138.78;;;23.61;45.94
37852;BME280;23691;52.486;4.650;2022-07-22T12:17:14;102139.44;;;23.56;45.46
37852;BME280;23691;52.486;4.650;2022-07-22T12:19:40;102130.03;;;23.45;45.92
37852;BME280;23691;52.486;4.650;2022-07-22T12:22:10;102120.97;;;23.51;46.33
37852;BME280;23691;52.486;4.650;2022-07-22T12:24:40;102113.47;;;24.04;45.69
37852;BME280;23691;52.486;4.650;2022-07-22T12:27:09;102116.84;;;24.24;44.92
37852;BME280;23691;52.486;4.650;2022-07-22T12:32:26;102120.19;;;24.26;44.16
37852;BME280;23691;52.486;4.650;2022-07-22T12:34:59;102114.81;;;24.19;44.55
37852;BME280;23691;52.486;4.650;2022-07-22T12:37:30;102128.81;;;24.05;43.78
37852;BME280;23691;52.486;4.650;2022-07-22T12:40:09;102135.72;;;24.07;44.21
37852;BME280;23691;52.486;4.650;2022-07-22T12:42:39;102137.19;;;24.10;44.31
37852;BME280;23691;52.486;4.650;2022-07-22T12:45:10;102137.59;;;24.07;44.32
37852;BME280;23691;52.486;4.650;2022-07-22T12:47:50;102136.81;;;23.99;44.81
37852;BME280;23691;52.486;4.650;2022-07-22T12:52:52;102129.03;;;23.71;45.54
37852;BME280;23691;52.486;4.650;2022-07-22T12:55:17;102131.91;;;23.51;45.98
37852;BME280;23691;52.486;4.650;2022-07-22T12:57:43;102134.50;;;23.33;46.09
37852;BME280;23691;52.486;4.650;2022-07-22T13:00:09;102139.13;;;23.32;46.63
37852;BME280;23691;52.486;4.650;2022-07-22T13:02:36;102132.00;;;23.31;46.75